KEKQ

Wayne County Airport

Monticello, Kentucky, USA
METAR KEKQ 241056Z AUTO 29005KT 10SM CLR 17/16 A3017 RMK AO2 SLP228 T01670161 TSNO PNO $
Observed Flight Rules
May-24 @ 10:56 UTC (57 minutes ago) Visual Flight Rules
Wind Visibility Clouds
290° at 5 knots 10 miles
  • Clear skies
Temperatures Readings
Current 17°C / 63°F
Dewpoint 16°C / 61°F
Humidity 94%
Altimeter 30.17" Hg
Pressure 1022.8 hPa
Elevation 294
METAR KEKQ 241056Z AUTO 29005KT 10SM CLR 17/16 A3017 RMK AO2 SLP228 T01670161 TSNO PNO $
Observed Flight Rules
May-24 @ 10:56 UTC
(57 minutes ago)
VFR
Wind Visibility
290° at 5 knots 10 miles
Clouds
  • Clear skies
Temperature Dewpoint
17°C / 63°F 16°C / 61°F
Humidity Altimeter Pressure
94% 30.17" Hg 1022.8 hPa